最新機場天氣預報 (TAF)

TAF VMMC 231700Z 2318/2424 03008KT 8000 FEW020 BECMG 2406/2409 10010KT=

機場天氣預報電碼經解碼後
報告內容 編碼 意義
報告種類之識別 TAF 機場天氣預報
機場代碼 VMMC 中國澳門
發出的日期及時間 231700Z 23/09/2019 17:00 國際時
有效的日期及時間 2318/2424 由 23日 18:00 國際時 至 24日 24:00 國際時
地面風 03008KT 平均風向 030 度, 風速 8 海里
能見度 8000 8 公里
天氣狀況    
雲層狀況/雲層高度 FEW020 雲量 1-2份, 雲底 2000 呎
在有效時段內以下一或多項要素將有顯著改變BECMG 2406/2409 10010KT逐漸轉變 由 24日 06:00 國際時 至 24日 09:00 國際時
風: 平均風向 100 度, 風速 10 海里

其他國際機場:
天氣預報 (TAF)   天氣報告 (METAR)